sensor_id;sensor_type;location;lat;lon;timestamp;P1;durP1;ratioP1;P2;durP2;ratioP2
35188;SDS011;21762;54.480;18.556;2022-09-30T00:01:39;17.00;;;10.60;;
35188;SDS011;21762;54.480;18.556;2022-09-30T00:04:08;16.50;;;9.38;;
35188;SDS011;21762;54.480;18.556;2022-09-30T00:06:40;15.88;;;9.90;;
35188;SDS011;21762;54.480;18.556;2022-09-30T00:09:09;15.65;;;9.85;;
35188;SDS011;21762;54.480;18.556;2022-09-30T00:11:38;20.05;;;10.00;;
35188;SDS011;21762;54.480;18.556;2022-09-30T00:14:09;16.20;;;9.40;;
35188;SDS011;21762;54.480;18.556;2022-09-30T00:16:40;17.88;;;10.05;;
35188;SDS011;21762;54.480;18.556;2022-09-30T00:19:09;20.55;;;10.40;;
35188;SDS011;21762;54.480;18.556;2022-09-30T00:21:39;16.08;;;9.57;;
35188;SDS011;21762;54.480;18.556;2022-09-30T00:24:08;15.27;;;9.40;;
35188;SDS011;21762;54.480;18.556;2022-09-30T00:26:36;20.40;;;9.65;;
35188;SDS011;21762;54.480;18.556;2022-09-30T00:29:08;17.88;;;10.70;;
35188;SDS011;21762;54.480;18.556;2022-09-30T00:31:37;14.45;;;8.95;;
35188;SDS011;21762;54.480;18.556;2022-09-30T00:34:05;17.48;;;8.57;;
35188;SDS011;21762;54.480;18.556;2022-09-30T00:36:40;15.27;;;9.15;;
35188;SDS011;21762;54.480;18.556;2022-09-30T00:39:11;17.83;;;9.85;;
35188;SDS011;21762;54.480;18.556;2022-09-30T00:41:41;20.05;;;9.85;;
35188;SDS011;21762;54.480;18.556;2022-09-30T00:53:03;14.88;;;8.48;;
35188;SDS011;21762;54.480;18.556;2022-09-30T00:55:37;19.63;;;9.55;;
35188;SDS011;21762;54.480;18.556;2022-09-30T00:58:11;18.20;;;9.63;;
35188;SDS011;21762;54.480;18.556;2022-09-30T01:00:44;16.92;;;9.77;;
35188;SDS011;21762;54.480;18.556;2022-09-30T01:03:12;18.25;;;9.75;;
35188;SDS011;21762;54.480;18.556;2022-09-30T01:05:44;19.52;;;9.15;;
35188;SDS011;21762;54.480;18.556;2022-09-30T01:08:14;17.98;;;10.13;;
35188;SDS011;21762;54.480;18.556;2022-09-30T01:10:44;21.23;;;9.38;;
35188;SDS011;21762;54.480;18.556;2022-09-30T01:13:13;17.27;;;9.30;;
35188;SDS011;21762;54.480;18.556;2022-09-30T01:15:46;17.05;;;9.93;;
35188;SDS011;21762;54.480;18.556;2022-09-30T01:18:28;17.30;;;10.93;;
35188;SDS011;21762;54.480;18.556;2022-09-30T01:24:32;16.70;;;10.35;;
35188;SDS011;21762;54.480;18.556;2022-09-30T01:27:31;16.95;;;10.25;;
35188;SDS011;21762;54.480;18.556;2022-09-30T01:30:08;15.85;;;9.18;;
35188;SDS011;21762;54.480;18.556;2022-09-30T01:38:34;25.08;;;11.05;;
35188;SDS011;21762;54.480;18.556;2022-09-30T01:41:10;17.00;;;9.77;;
35188;SDS011;21762;54.480;18.556;2022-09-30T01:43:46;16.75;;;9.48;;
35188;SDS011;21762;54.480;18.556;2022-09-30T01:46:31;18.30;;;9.80;;
35188;SDS011;21762;54.480;18.556;2022-09-30T01:49:06;24.63;;;11.52;;
35188;SDS011;21762;54.480;18.556;2022-09-30T01:51:38;14.05;;;9.20;;
35188;SDS011;21762;54.480;18.556;2022-09-30T01:54:10;17.90;;;10.80;;
35188;SDS011;21762;54.480;18.556;2022-09-30T01:56:41;17.52;;;10.48;;
35188;SDS011;21762;54.480;18.556;2022-09-30T01:59:13;19.38;;;9.60;;
35188;SDS011;21762;54.480;18.556;2022-09-30T02:01:43;20.20;;;9.88;;
35188;SDS011;21762;54.480;18.556;2022-09-30T02:04:18;16.83;;;9.73;;
35188;SDS011;21762;54.480;18.556;2022-09-30T02:06:51;19.10;;;9.48;;
35188;SDS011;21762;54.480;18.556;2022-09-30T02:09:23;17.65;;;9.35;;
35188;SDS011;21762;54.480;18.556;2022-09-30T02:11:54;20.17;;;9.45;;
35188;SDS011;21762;54.480;18.556;2022-09-30T02:14:24;14.32;;;9.75;;
35188;SDS011;21762;54.480;18.556;2022-09-30T02:16:56;15.82;;;9.52;;
35188;SDS011;21762;54.480;18.556;2022-09-30T02:19:32;16.27;;;8.90;;
35188;SDS011;21762;54.480;18.556;2022-09-30T02:22:05;17.05;;;9.18;;
35188;SDS011;21762;54.480;18.556;2022-09-30T02:24:37;13.85;;;8.93;;
35188;SDS011;21762;54.480;18.556;2022-09-30T02:27:08;13.63;;;8.75;;
35188;SDS011;21762;54.480;18.556;2022-09-30T02:29:54;15.48;;;9.15;;
35188;SDS011;21762;54.480;18.556;2022-09-30T02:32:28;15.98;;;9.10;;
35188;SDS011;21762;54.480;18.556;2022-09-30T02:37:30;16.33;;;9.32;;
35188;SDS011;21762;54.480;18.556;2022-09-30T02:40:01;17.40;;;9.25;;
35188;SDS011;21762;54.480;18.556;2022-09-30T02:42:31;13.70;;;9.15;;
35188;SDS011;21762;54.480;18.556;2022-09-30T02:45:04;15.50;;;9.20;;
35188;SDS011;21762;54.480;18.556;2022-09-30T02:47:38;16.58;;;7.93;;
35188;SDS011;21762;54.480;18.556;2022-09-30T02:50:15;16.02;;;9.23;;
35188;SDS011;21762;54.480;18.556;2022-09-30T02:52:54;15.30;;;9.07;;
35188;SDS011;21762;54.480;18.556;2022-09-30T02:55:30;14.20;;;8.55;;
35188;SDS011;21762;54.480;18.556;2022-09-30T02:58:07;17.17;;;10.05;;
35188;SDS011;21762;54.480;18.556;2022-09-30T03:00:38;15.00;;;8.98;;
35188;SDS011;21762;54.480;18.556;2022-09-30T03:03:08;16.27;;;9.77;;
35188;SDS011;21762;54.480;18.556;2022-09-30T03:05:40;12.68;;;8.52;;
35188;SDS011;21762;54.480;18.556;2022-09-30T03:08:12;17.02;;;9.45;;
35188;SDS011;21762;54.480;18.556;2022-09-30T03:10:40;16.80;;;9.70;;
35188;SDS011;21762;54.480;18.556;2022-09-30T03:13:11;16.92;;;8.63;;
35188;SDS011;21762;54.480;18.556;2022-09-30T03:15:50;15.20;;;9.85;;
35188;SDS011;21762;54.480;18.556;2022-09-30T03:18:38;17.02;;;9.27;;
35188;SDS011;21762;54.480;18.556;2022-09-30T03:21:16;17.15;;;8.93;;
35188;SDS011;21762;54.480;18.556;2022-09-30T03:27:06;19.15;;;9.98;;
35188;SDS011;21762;54.480;18.556;2022-09-30T03:29:43;16.35;;;9.15;;
35188;SDS011;21762;54.480;18.556;2022-09-30T03:32:17;15.77;;;9.77;;
35188;SDS011;21762;54.480;18.556;2022-09-30T03:34:58;15.82;;;9.18;;
35188;SDS011;21762;54.480;18.556;2022-09-30T03:37:35;14.77;;;9.32;;
35188;SDS011;21762;54.480;18.556;2022-09-30T03:40:13;14.80;;;9.45;;
35188;SDS011;21762;54.480;18.556;2022-09-30T03:42:44;18.88;;;10.63;;
35188;SDS011;21762;54.480;18.556;2022-09-30T03:45:15;15.32;;;10.32;;
35188;SDS011;21762;54.480;18.556;2022-09-30T03:47:46;14.88;;;9.43;;
35188;SDS011;21762;54.480;18.556;2022-09-30T03:50:19;16.38;;;10.48;;
35188;SDS011;21762;54.480;18.556;2022-09-30T03:52:50;17.42;;;10.82;;
35188;SDS011;21762;54.480;18.556;2022-09-30T03:55:19;18.00;;;10.18;;
35188;SDS011;21762;54.480;18.556;2022-09-30T03:57:49;19.40;;;11.23;;
35188;SDS011;21762;54.480;18.556;2022-09-30T04:00:17;20.02;;;10.05;;
35188;SDS011;21762;54.480;18.556;2022-09-30T04:02:46;18.90;;;11.73;;
35188;SDS011;21762;54.480;18.556;2022-09-30T04:05:14;18.67;;;10.82;;
35188;SDS011;21762;54.480;18.556;2022-09-30T04:07:42;20.40;;;12.18;;
35188;SDS011;21762;54.480;18.556;2022-09-30T04:10:15;20.35;;;11.63;;
35188;SDS011;21762;54.480;18.556;2022-09-30T04:12:43;15.77;;;10.65;;
35188;SDS011;21762;54.480;18.556;2022-09-30T04:15:11;23.27;;;12.23;;
35188;SDS011;21762;54.480;18.556;2022-09-30T04:17:40;19.33;;;11.32;;
35188;SDS011;21762;54.480;18.556;2022-09-30T04:20:08;17.77;;;10.32;;
35188;SDS011;21762;54.480;18.556;2022-09-30T04:22:38;19.17;;;10.95;;
35188;SDS011;21762;54.480;18.556;2022-09-30T04:25:07;18.17;;;11.10;;
35188;SDS011;21762;54.480;18.556;2022-09-30T04:27:37;22.55;;;12.15;;
35188;SDS011;21762;54.480;18.556;2022-09-30T04:30:05;21.10;;;10.07;;
35188;SDS011;21762;54.480;18.556;2022-09-30T04:32:34;21.35;;;10.40;;
35188;SDS011;21762;54.480;18.556;2022-09-30T04:35:02;16.75;;;10.38;;
35188;SDS011;21762;54.480;18.556;2022-09-30T04:37:31;17.75;;;10.48;;
35188;SDS011;21762;54.480;18.556;2022-09-30T04:39:59;21.27;;;11.07;;
35188;SDS011;21762;54.480;18.556;2022-09-30T04:42:28;19.35;;;10.18;;
35188;SDS011;21762;54.480;18.556;2022-09-30T04:44:57;23.20;;;12.02;;
35188;SDS011;21762;54.480;18.556;2022-09-30T04:47:26;21.08;;;11.80;;
35188;SDS011;21762;54.480;18.556;2022-09-30T04:49:54;19.00;;;11.80;;
35188;SDS011;21762;54.480;18.556;2022-09-30T04:52:23;22.42;;;10.80;;
35188;SDS011;21762;54.480;18.556;2022-09-30T04:54:51;19.60;;;11.00;;
35188;SDS011;21762;54.480;18.556;2022-09-30T04:57:19;27.13;;;11.68;;
35188;SDS011;21762;54.480;18.556;2022-09-30T04:59:48;20.65;;;10.77;;
35188;SDS011;21762;54.480;18.556;2022-09-30T05:02:18;21.70;;;11.80;;
35188;SDS011;21762;54.480;18.556;2022-09-30T05:04:47;21.23;;;12.52;;
35188;SDS011;21762;54.480;18.556;2022-09-30T05:07:15;17.25;;;10.70;;
35188;SDS011;21762;54.480;18.556;2022-09-30T05:09:43;22.73;;;11.82;;
35188;SDS011;21762;54.480;18.556;2022-09-30T05:12:14;24.10;;;12.07;;
35188;SDS011;21762;54.480;18.556;2022-09-30T05:14:42;19.98;;;11.07;;
35188;SDS011;21762;54.480;18.556;2022-09-30T05:17:10;24.45;;;12.70;;
35188;SDS011;21762;54.480;18.556;2022-09-30T05:19:41;19.40;;;10.88;;
35188;SDS011;21762;54.480;18.556;2022-09-30T05:22:09;20.35;;;11.68;;
35188;SDS011;21762;54.480;18.556;2022-09-30T05:24:43;18.30;;;11.07;;
35188;SDS011;21762;54.480;18.556;2022-09-30T05:27:11;19.08;;;11.85;;
35188;SDS011;21762;54.480;18.556;2022-09-30T05:29:40;19.42;;;11.10;;
35188;SDS011;21762;54.480;18.556;2022-09-30T05:32:08;18.77;;;11.23;;
35188;SDS011;21762;54.480;18.556;2022-09-30T05:34:39;22.23;;;12.15;;
35188;SDS011;21762;54.480;18.556;2022-09-30T05:37:08;21.63;;;11.93;;
35188;SDS011;21762;54.480;18.556;2022-09-30T05:39:37;20.40;;;11.60;;
35188;SDS011;21762;54.480;18.556;2022-09-30T05:42:05;23.83;;;11.32;;
35188;SDS011;21762;54.480;18.556;2022-09-30T05:44:36;22.70;;;11.95;;
35188;SDS011;21762;54.480;18.556;2022-09-30T05:47:04;22.85;;;12.60;;
35188;SDS011;21762;54.480;18.556;2022-09-30T05:49:33;22.75;;;11.73;;
35188;SDS011;21762;54.480;18.556;2022-09-30T05:52:08;24.38;;;12.73;;
35188;SDS011;21762;54.480;18.556;2022-09-30T05:54:37;23.05;;;12.05;;
35188;SDS011;21762;54.480;18.556;2022-09-30T05:57:06;23.45;;;12.52;;
35188;SDS011;21762;54.480;18.556;2022-09-30T05:59:34;21.55;;;12.00;;
35188;SDS011;21762;54.480;18.556;2022-09-30T06:02:03;21.55;;;13.05;;
35188;SDS011;21762;54.480;18.556;2022-09-30T06:04:35;22.75;;;12.05;;
35188;SDS011;21762;54.480;18.556;2022-09-30T06:07:05;21.50;;;12.52;;
35188;SDS011;21762;54.480;18.556;2022-09-30T06:09:40;22.05;;;12.13;;
35188;SDS011;21762;54.480;18.556;2022-09-30T06:12:09;20.70;;;12.52;;
35188;SDS011;21762;54.480;18.556;2022-09-30T06:14:37;19.65;;;12.15;;
35188;SDS011;21762;54.480;18.556;2022-09-30T06:17:05;25.58;;;11.68;;
35188;SDS011;21762;54.480;18.556;2022-09-30T06:19:34;24.08;;;11.63;;
35188;SDS011;21762;54.480;18.556;2022-09-30T06:22:03;21.35;;;12.57;;
35188;SDS011;21762;54.480;18.556;2022-09-30T06:24:31;22.17;;;11.82;;
35188;SDS011;21762;54.480;18.556;2022-09-30T06:27:00;25.75;;;12.73;;
35188;SDS011;21762;54.480;18.556;2022-09-30T06:29:30;20.45;;;12.00;;
35188;SDS011;21762;54.480;18.556;2022-09-30T06:31:58;23.58;;;12.32;;
35188;SDS011;21762;54.480;18.556;2022-09-30T06:34:27;25.55;;;11.27;;
35188;SDS011;21762;54.480;18.556;2022-09-30T06:36:55;22.77;;;11.80;;
35188;SDS011;21762;54.480;18.556;2022-09-30T06:39:23;21.55;;;11.35;;
35188;SDS011;21762;54.480;18.556;2022-09-30T06:41:53;25.20;;;11.75;;
35188;SDS011;21762;54.480;18.556;2022-09-30T06:44:25;28.00;;;12.25;;
35188;SDS011;21762;54.480;18.556;2022-09-30T06:46:53;21.33;;;10.93;;
35188;SDS011;21762;54.480;18.556;2022-09-30T06:49:21;22.13;;;12.18;;
35188;SDS011;21762;54.480;18.556;2022-09-30T06:51:49;19.80;;;11.50;;
35188;SDS011;21762;54.480;18.556;2022-09-30T06:54:17;21.63;;;10.90;;
35188;SDS011;21762;54.480;18.556;2022-09-30T06:56:46;26.95;;;13.18;;
35188;SDS011;21762;54.480;18.556;2022-09-30T06:59:14;29.48;;;12.38;;
35188;SDS011;21762;54.480;18.556;2022-09-30T07:01:43;29.45;;;11.98;;
35188;SDS011;21762;54.480;18.556;2022-09-30T07:04:12;21.23;;;11.45;;
35188;SDS011;21762;54.480;18.556;2022-09-30T07:06:40;24.83;;;11.13;;
35188;SDS011;21762;54.480;18.556;2022-09-30T07:09:10;23.42;;;10.90;;
35188;SDS011;21762;54.480;18.556;2022-09-30T07:11:38;18.40;;;10.68;;
35188;SDS011;21762;54.480;18.556;2022-09-30T07:14:07;26.20;;;10.95;;
35188;SDS011;21762;54.480;18.556;2022-09-30T07:16:37;29.52;;;11.30;;
35188;SDS011;21762;54.480;18.556;2022-09-30T07:19:13;25.65;;;10.85;;
35188;SDS011;21762;54.480;18.556;2022-09-30T07:21:43;22.67;;;11.27;;
35188;SDS011;21762;54.480;18.556;2022-09-30T07:24:11;18.80;;;9.93;;
35188;SDS011;21762;54.480;18.556;2022-09-30T07:26:41;18.25;;;9.95;;
35188;SDS011;21762;54.480;18.556;2022-09-30T07:29:11;17.33;;;10.00;;
35188;SDS011;21762;54.480;18.556;2022-09-30T07:31:39;13.63;;;8.70;;
35188;SDS011;21762;54.480;18.556;2022-09-30T07:34:08;17.85;;;9.85;;
35188;SDS011;21762;54.480;18.556;2022-09-30T07:36:40;16.00;;;8.82;;
35188;SDS011;21762;54.480;18.556;2022-09-30T07:39:09;12.02;;;7.93;;
35188;SDS011;21762;54.480;18.556;2022-09-30T07:41:37;10.90;;;7.75;;
35188;SDS011;21762;54.480;18.556;2022-09-30T07:44:07;24.17;;;9.30;;
35188;SDS011;21762;54.480;18.556;2022-09-30T07:46:37;9.98;;;7.03;;
35188;SDS011;21762;54.480;18.556;2022-09-30T07:49:06;10.18;;;6.53;;
35188;SDS011;21762;54.480;18.556;2022-09-30T07:51:37;13.70;;;7.38;;
35188;SDS011;21762;54.480;18.556;2022-09-30T07:54:09;18.02;;;7.28;;
35188;SDS011;21762;54.480;18.556;2022-09-30T07:59:23;15.55;;;6.53;;
35188;SDS011;21762;54.480;18.556;2022-09-30T08:01:52;12.93;;;6.78;;
35188;SDS011;21762;54.480;18.556;2022-09-30T08:04:21;14.80;;;7.57;;
35188;SDS011;21762;54.480;18.556;2022-09-30T08:06:52;14.37;;;7.10;;
35188;SDS011;21762;54.480;18.556;2022-09-30T08:09:24;11.05;;;6.20;;
35188;SDS011;21762;54.480;18.556;2022-09-30T08:11:53;13.40;;;6.90;;
35188;SDS011;21762;54.480;18.556;2022-09-30T08:14:23;11.38;;;6.45;;
35188;SDS011;21762;54.480;18.556;2022-09-30T08:16:54;11.75;;;6.72;;
35188;SDS011;21762;54.480;18.556;2022-09-30T08:19:24;11.98;;;6.75;;
35188;SDS011;21762;54.480;18.556;2022-09-30T08:21:52;13.52;;;6.53;;
35188;SDS011;21762;54.480;18.556;2022-09-30T08:24:25;12.55;;;6.95;;
35188;SDS011;21762;54.480;18.556;2022-09-30T08:26:53;11.73;;;6.55;;
35188;SDS011;21762;54.480;18.556;2022-09-30T08:29:21;16.85;;;7.63;;
35188;SDS011;21762;54.480;18.556;2022-09-30T08:32:10;12.57;;;6.53;;
35188;SDS011;21762;54.480;18.556;2022-09-30T08:34:38;14.13;;;7.28;;
35188;SDS011;21762;54.480;18.556;2022-09-30T08:37:06;9.38;;;6.53;;
35188;SDS011;21762;54.480;18.556;2022-09-30T08:39:37;11.65;;;6.30;;
35188;SDS011;21762;54.480;18.556;2022-09-30T08:42:12;12.50;;;7.22;;
35188;SDS011;21762;54.480;18.556;2022-09-30T08:45:05;13.60;;;6.13;;
35188;SDS011;21762;54.480;18.556;2022-09-30T08:47:45;10.93;;;5.97;;
35188;SDS011;21762;54.480;18.556;2022-09-30T08:50:18;9.75;;;4.22;;
35188;SDS011;21762;54.480;18.556;2022-09-30T08:52:51;7.75;;;4.25;;
35188;SDS011;21762;54.480;18.556;2022-09-30T08:55:24;13.27;;;5.15;;
35188;SDS011;21762;54.480;18.556;2022-09-30T08:57:54;7.63;;;4.78;;
35188;SDS011;21762;54.480;18.556;2022-09-30T09:00:23;8.65;;;4.68;;
35188;SDS011;21762;54.480;18.556;2022-09-30T09:02:52;10.52;;;5.30;;
35188;SDS011;21762;54.480;18.556;2022-09-30T09:05:27;8.73;;;5.38;;
35188;SDS011;21762;54.480;18.556;2022-09-30T09:08:00;8.55;;;4.70;;
35188;SDS011;21762;54.480;18.556;2022-09-30T09:10:35;5.43;;;3.15;;
35188;SDS011;21762;54.480;18.556;2022-09-30T09:13:10;4.88;;;3.03;;
35188;SDS011;21762;54.480;18.556;2022-09-30T09:15:48;7.82;;;3.75;;
35188;SDS011;21762;54.480;18.556;2022-09-30T09:18:28;2.92;;;2.20;;
35188;SDS011;21762;54.480;18.556;2022-09-30T09:21:13;5.80;;;3.55;;
35188;SDS011;21762;54.480;18.556;2022-09-30T09:23:47;5.78;;;3.10;;
35188;SDS011;21762;54.480;18.556;2022-09-30T09:26:18;4.00;;;1.90;;
35188;SDS011;21762;54.480;18.556;2022-09-30T09:28:50;11.10;;;3.83;;
35188;SDS011;21762;54.480;18.556;2022-09-30T09:31:26;7.85;;;4.03;;
35188;SDS011;21762;54.480;18.556;2022-09-30T09:33:55;4.90;;;3.50;;
35188;SDS011;21762;54.480;18.556;2022-09-30T09:36:31;7.22;;;3.17;;
35188;SDS011;21762;54.480;18.556;2022-09-30T09:39:11;7.65;;;3.45;;
35188;SDS011;21762;54.480;18.556;2022-09-30T09:41:50;9.52;;;4.07;;
35188;SDS011;21762;54.480;18.556;2022-09-30T09:44:22;7.80;;;3.42;;
35188;SDS011;21762;54.480;18.556;2022-09-30T09:46:58;6.80;;;3.60;;
35188;SDS011;21762;54.480;18.556;2022-09-30T09:49:32;10.43;;;4.18;;
35188;SDS011;21762;54.480;18.556;2022-09-30T09:55:11;8.27;;;3.45;;
35188;SDS011;21762;54.480;18.556;2022-09-30T09:57:41;7.05;;;3.38;;
35188;SDS011;21762;54.480;18.556;2022-09-30T10:00:10;5.65;;;3.30;;
35188;SDS011;21762;54.480;18.556;2022-09-30T10:03:00;8.85;;;3.50;;
35188;SDS011;21762;54.480;18.556;2022-09-30T10:05:31;4.80;;;3.05;;
35188;SDS011;21762;54.480;18.556;2022-09-30T10:08:09;8.75;;;3.75;;
35188;SDS011;21762;54.480;18.556;2022-09-30T10:10:42;10.88;;;3.22;;
35188;SDS011;21762;54.480;18.556;2022-09-30T10:13:15;9.77;;;3.88;;
35188;SDS011;21762;54.480;18.556;2022-09-30T10:15:45;10.52;;;3.47;;
35188;SDS011;21762;54.480;18.556;2022-09-30T10:18:18;5.63;;;3.75;;
35188;SDS011;21762;54.480;18.556;2022-09-30T10:20:49;6.35;;;3.30;;
35188;SDS011;21762;54.480;18.556;2022-09-30T10:23:19;6.25;;;3.97;;
35188;SDS011;21762;54.480;18.556;2022-09-30T10:25:59;4.47;;;2.85;;
35188;SDS011;21762;54.480;18.556;2022-09-30T10:28:33;7.97;;;3.13;;
35188;SDS011;21762;54.480;18.556;2022-09-30T10:31:05;7.07;;;3.65;;
35188;SDS011;21762;54.480;18.556;2022-09-30T10:33:35;6.03;;;2.92;;
35188;SDS011;21762;54.480;18.556;2022-09-30T10:36:10;6.32;;;4.35;;
35188;SDS011;21762;54.480;18.556;2022-09-30T10:38:51;7.43;;;4.15;;
35188;SDS011;21762;54.480;18.556;2022-09-30T10:41:25;6.82;;;3.90;;
35188;SDS011;21762;54.480;18.556;2022-09-30T10:43:57;6.47;;;3.90;;
35188;SDS011;21762;54.480;18.556;2022-09-30T10:46:28;7.18;;;4.13;;
35188;SDS011;21762;54.480;18.556;2022-09-30T10:48:57;5.47;;;4.25;;
35188;SDS011;21762;54.480;18.556;2022-09-30T10:51:27;7.45;;;4.15;;
35188;SDS011;21762;54.480;18.556;2022-09-30T10:53:59;9.30;;;4.75;;
35188;SDS011;21762;54.480;18.556;2022-09-30T10:56:30;10.40;;;3.58;;
35188;SDS011;21762;54.480;18.556;2022-09-30T10:59:06;8.20;;;5.22;;
35188;SDS011;21762;54.480;18.556;2022-09-30T11:01:43;10.50;;;6.47;;
35188;SDS011;21762;54.480;18.556;2022-09-30T11:04:18;9.00;;;5.25;;
35188;SDS011;21762;54.480;18.556;2022-09-30T11:09:23;8.63;;;5.80;;
35188;SDS011;21762;54.480;18.556;2022-09-30T11:11:56;10.73;;;6.30;;
35188;SDS011;21762;54.480;18.556;2022-09-30T11:14:30;8.52;;;5.88;;
35188;SDS011;21762;54.480;18.556;2022-09-30T11:17:09;14.50;;;7.80;;
35188;SDS011;21762;54.480;18.556;2022-09-30T11:19:46;12.43;;;6.03;;
35188;SDS011;21762;54.480;18.556;2022-09-30T11:22:24;9.18;;;6.05;;
35188;SDS011;21762;54.480;18.556;2022-09-30T11:24:58;41.25;;;8.05;;
35188;SDS011;21762;54.480;18.556;2022-09-30T11:27:29;33.33;;;6.32;;
35188;SDS011;21762;54.480;18.556;2022-09-30T11:30:10;25.02;;;6.80;;
35188;SDS011;21762;54.480;18.556;2022-09-30T11:32:45;17.15;;;6.45;;
35188;SDS011;21762;54.480;18.556;2022-09-30T11:35:29;22.98;;;6.25;;
35188;SDS011;21762;54.480;18.556;2022-09-30T11:38:08;13.82;;;6.30;;
35188;SDS011;21762;54.480;18.556;2022-09-30T11:40:37;8.80;;;5.70;;
35188;SDS011;21762;54.480;18.556;2022-09-30T11:43:13;11.05;;;6.03;;
35188;SDS011;21762;54.480;18.556;2022-09-30T11:45:55;12.35;;;6.25;;
35188;SDS011;21762;54.480;18.556;2022-09-30T11:48:34;8.82;;;4.60;;
35188;SDS011;21762;54.480;18.556;2022-09-30T11:51:16;7.45;;;5.38;;
35188;SDS011;21762;54.480;18.556;2022-09-30T11:53:50;10.90;;;4.95;;
35188;SDS011;21762;54.480;18.556;2022-09-30T11:56:26;11.95;;;6.10;;
35188;SDS011;21762;54.480;18.556;2022-09-30T11:59:02;10.13;;;5.32;;
35188;SDS011;21762;54.480;18.556;2022-09-30T12:01:33;10.38;;;5.60;;
35188;SDS011;21762;54.480;18.556;2022-09-30T12:04:05;15.88;;;5.70;;
35188;SDS011;21762;54.480;18.556;2022-09-30T12:06:36;22.87;;;5.53;;
35188;SDS011;21762;54.480;18.556;2022-09-30T12:09:11;7.05;;;4.35;;
35188;SDS011;21762;54.480;18.556;2022-09-30T12:11:43;6.00;;;4.95;;
35188;SDS011;21762;54.480;18.556;2022-09-30T12:14:18;4.32;;;3.80;;
35188;SDS011;21762;54.480;18.556;2022-09-30T12:16:51;5.97;;;3.63;;
35188;SDS011;21762;54.480;18.556;2022-09-30T12:19:24;5.90;;;3.28;;
35188;SDS011;21762;54.480;18.556;2022-09-30T12:21:57;6.63;;;3.67;;
35188;SDS011;21762;54.480;18.556;2022-09-30T12:24:30;4.75;;;2.80;;
35188;SDS011;21762;54.480;18.556;2022-09-30T12:27:01;6.30;;;3.22;;
35188;SDS011;21762;54.480;18.556;2022-09-30T12:29:33;5.97;;;3.45;;
35188;SDS011;21762;54.480;18.556;2022-09-30T12:35:36;4.88;;;3.72;;
35188;SDS011;21762;54.480;18.556;2022-09-30T12:38:18;6.43;;;3.40;;
35188;SDS011;21762;54.480;18.556;2022-09-30T12:41:07;5.28;;;3.08;;
35188;SDS011;21762;54.480;18.556;2022-09-30T12:46:52;6.47;;;2.95;;
35188;SDS011;21762;54.480;18.556;2022-09-30T12:49:27;3.58;;;2.30;;
35188;SDS011;21762;54.480;18.556;2022-09-30T12:51:56;8.57;;;2.95;;
35188;SDS011;21762;54.480;18.556;2022-09-30T12:54:27;4.03;;;2.33;;
35188;SDS011;21762;54.480;18.556;2022-09-30T12:56:58;30.13;;;6.40;;
35188;SDS011;21762;54.480;18.556;2022-09-30T12:59:30;80.38;;;11.20;;
35188;SDS011;21762;54.480;18.556;2022-09-30T13:02:01;60.30;;;7.60;;
35188;SDS011;21762;54.480;18.556;2022-09-30T13:04:34;92.78;;;10.02;;
35188;SDS011;21762;54.480;18.556;2022-09-30T13:07:11;53.05;;;7.35;;
35188;SDS011;21762;54.480;18.556;2022-09-30T13:09:54;57.20;;;7.95;;
35188;SDS011;21762;54.480;18.556;2022-09-30T13:12:26;47.88;;;6.35;;
35188;SDS011;21762;54.480;18.556;2022-09-30T13:17:50;48.10;;;6.05;;
35188;SDS011;21762;54.480;18.556;2022-09-30T13:32:05;1.60;;;1.38;;
35188;SDS011;21762;54.480;18.556;2022-09-30T13:37:31;4.03;;;2.10;;
35188;SDS011;21762;54.480;18.556;2022-09-30T13:40:14;3.13;;;2.05;;
35188;SDS011;21762;54.480;18.556;2022-09-30T13:42:52;4.82;;;2.00;;
35188;SDS011;21762;54.480;18.556;2022-09-30T13:45:28;5.07;;;2.08;;
35188;SDS011;21762;54.480;18.556;2022-09-30T13:48:01;10.07;;;1.98;;
35188;SDS011;21762;54.480;18.556;2022-09-30T13:50:37;11.32;;;2.55;;
35188;SDS011;21762;54.480;18.556;2022-09-30T13:53:14;2.88;;;1.58;;
35188;SDS011;21762;54.480;18.556;2022-09-30T13:55:50;2.28;;;1.45;;
35188;SDS011;21762;54.480;18.556;2022-09-30T13:58:28;2.65;;;1.30;;
35188;SDS011;21762;54.480;18.556;2022-09-30T14:01:04;1.73;;;1.35;;
35188;SDS011;21762;54.480;18.556;2022-09-30T14:03:45;3.25;;;2.10;;
35188;SDS011;21762;54.480;18.556;2022-09-30T14:06:21;3.72;;;2.13;;
35188;SDS011;21762;54.480;18.556;2022-09-30T14:09:02;3.22;;;1.60;;
35188;SDS011;21762;54.480;18.556;2022-09-30T14:11:41;2.28;;;1.42;;
35188;SDS011;21762;54.480;18.556;2022-09-30T14:14:24;4.22;;;2.13;;
35188;SDS011;21762;54.480;18.556;2022-09-30T14:17:09;5.55;;;1.70;;
35188;SDS011;21762;54.480;18.556;2022-09-30T14:19:50;5.55;;;1.95;;
35188;SDS011;21762;54.480;18.556;2022-09-30T14:22:23;3.38;;;1.90;;
35188;SDS011;21762;54.480;18.556;2022-09-30T14:24:54;19.30;;;3.35;;
35188;SDS011;21762;54.480;18.556;2022-09-30T14:30:15;2.83;;;1.75;;
35188;SDS011;21762;54.480;18.556;2022-09-30T14:32:46;5.72;;;2.30;;
35188;SDS011;21762;54.480;18.556;2022-09-30T14:35:17;6.50;;;1.90;;
35188;SDS011;21762;54.480;18.556;2022-09-30T14:37:46;2.63;;;1.90;;
35188;SDS011;21762;54.480;18.556;2022-09-30T14:40:18;4.43;;;2.70;;
35188;SDS011;21762;54.480;18.556;2022-09-30T14:42:47;3.17;;;2.20;;
35188;SDS011;21762;54.480;18.556;2022-09-30T14:45:17;4.72;;;2.40;;
35188;SDS011;21762;54.480;18.556;2022-09-30T14:47:48;3.97;;;2.03;;
35188;SDS011;21762;54.480;18.556;2022-09-30T14:50:21;3.05;;;2.38;;
35188;SDS011;21762;54.480;18.556;2022-09-30T14:52:51;3.40;;;2.45;;
35188;SDS011;21762;54.480;18.556;2022-09-30T14:55:25;4.93;;;2.20;;
35188;SDS011;21762;54.480;18.556;2022-09-30T14:58:18;8.43;;;3.10;;
35188;SDS011;21762;54.480;18.556;2022-09-30T15:01:01;6.68;;;2.70;;
35188;SDS011;21762;54.480;18.556;2022-09-30T15:03:32;6.57;;;2.83;;
35188;SDS011;21762;54.480;18.556;2022-09-30T15:06:02;10.02;;;3.50;;
35188;SDS011;21762;54.480;18.556;2022-09-30T15:08:31;5.90;;;2.60;;
35188;SDS011;21762;54.480;18.556;2022-09-30T15:11:00;6.07;;;2.60;;
35188;SDS011;21762;54.480;18.556;2022-09-30T15:13:29;12.52;;;2.42;;
35188;SDS011;21762;54.480;18.556;2022-09-30T15:16:01;3.75;;;2.35;;
35188;SDS011;21762;54.480;18.556;2022-09-30T15:18:30;6.00;;;2.97;;
35188;SDS011;21762;54.480;18.556;2022-09-30T15:21:05;4.25;;;2.75;;
35188;SDS011;21762;54.480;18.556;2022-09-30T15:23:36;4.18;;;2.92;;
35188;SDS011;21762;54.480;18.556;2022-09-30T15:26:07;5.32;;;2.97;;
35188;SDS011;21762;54.480;18.556;2022-09-30T15:28:37;5.35;;;3.25;;
35188;SDS011;21762;54.480;18.556;2022-09-30T15:31:06;8.23;;;2.90;;
35188;SDS011;21762;54.480;18.556;2022-09-30T15:33:40;7.40;;;2.72;;
35188;SDS011;21762;54.480;18.556;2022-09-30T15:36:12;4.55;;;3.10;;
35188;SDS011;21762;54.480;18.556;2022-09-30T15:38:45;7.07;;;3.13;;
35188;SDS011;21762;54.480;18.556;2022-09-30T15:43:44;5.95;;;3.17;;
35188;SDS011;21762;54.480;18.556;2022-09-30T15:46:23;5.63;;;3.33;;
35188;SDS011;21762;54.480;18.556;2022-09-30T15:48:57;9.18;;;3.25;;
35188;SDS011;21762;54.480;18.556;2022-09-30T15:51:28;10.15;;;3.92;;
35188;SDS011;21762;54.480;18.556;2022-09-30T15:54:29;9.73;;;3.30;;